createdAt,value
2018-04-24T00:02:07.251Z,7.10
2018-04-24T00:04:33.897Z,7.80
2018-04-24T00:07:00.505Z,7.50
2018-04-24T00:09:28.344Z,7.10
2018-04-24T00:11:56.320Z,6.90
2018-04-24T00:14:29.210Z,7.12
2018-04-24T00:16:56.796Z,7.22
2018-04-24T00:19:23.451Z,7.78
2018-04-24T00:21:53.574Z,6.70
2018-04-24T00:24:20.330Z,7.37
2018-04-24T00:26:46.938Z,7.45
2018-04-24T00:29:13.678Z,7.70
2018-04-24T00:31:40.301Z,7.90
2018-04-24T00:34:06.938Z,8.50
2018-04-24T00:36:37.310Z,7.55
2018-04-24T00:39:03.922Z,7.90
2018-04-24T00:41:34.240Z,8.20
2018-04-24T00:44:00.866Z,7.50
2018-04-24T00:46:27.659Z,7.75
2018-04-24T00:48:54.414Z,8.38
2018-04-24T00:51:21.058Z,8.88
2018-04-24T00:53:47.732Z,9.23
2018-04-24T00:56:14.375Z,8.13
2018-04-24T00:58:47.580Z,8.93
2018-04-24T01:01:14.514Z,8.05
2018-04-24T01:03:44.168Z,8.93
2018-04-24T01:06:10.893Z,7.72
2018-04-24T01:08:37.598Z,8.02
2018-04-24T01:11:04.309Z,8.98
2018-04-24T01:13:31.046Z,8.77
2018-04-24T01:15:57.671Z,8.60
2018-04-24T01:18:24.499Z,9.65
2018-04-24T01:20:51.115Z,9.18
2018-04-24T01:23:18.630Z,8.65
2018-04-24T01:25:45.785Z,8.90
2018-04-24T01:28:12.445Z,8.25
2018-04-24T01:30:39.965Z,9.40
2018-04-24T01:33:07.986Z,9.65
2018-04-24T01:35:34.637Z,9.85
2018-04-24T01:38:02.244Z,9.88
2018-04-24T01:40:28.862Z,10.70
2018-04-24T01:42:55.490Z,9.35
2018-04-24T01:45:22.136Z,10.20
2018-04-24T01:47:48.787Z,10.95
2018-04-24T01:50:15.481Z,11.70
2018-04-24T01:52:42.150Z,10.90
2018-04-24T01:55:08.828Z,12.07
2018-04-24T01:57:35.469Z,13.32
2018-04-24T02:00:02.132Z,14.80
2018-04-24T02:02:28.812Z,13.93
2018-04-24T02:04:56.313Z,13.00
2018-04-24T02:07:22.948Z,14.93
2018-04-24T02:09:50.507Z,13.32
2018-04-24T02:12:17.941Z,12.80
2018-04-24T02:14:44.873Z,12.13
2018-04-24T02:17:11.524Z,12.80
2018-04-24T02:19:38.217Z,12.30
2018-04-24T02:22:04.850Z,10.55
2018-04-24T02:24:32.358Z,10.80
2018-04-24T02:26:59.042Z,10.52
2018-04-24T02:29:25.699Z,11.25
2018-04-24T02:31:52.701Z,10.13
2018-04-24T02:34:19.314Z,11.35
2018-04-24T02:36:45.941Z,9.80
2018-04-24T02:39:13.099Z,10.25
2018-04-24T02:41:39.758Z,11.57
2018-04-24T02:44:06.414Z,11.95
2018-04-24T02:46:33.283Z,10.98
2018-04-24T02:48:59.913Z,11.20
2018-04-24T02:51:26.594Z,12.07
2018-04-24T02:53:53.247Z,10.98
2018-04-24T02:56:20.658Z,9.85
2018-04-24T02:58:48.502Z,12.13
2018-04-24T03:01:15.986Z,11.07
2018-04-24T03:03:42.670Z,9.82
2018-04-24T03:06:09.338Z,9.82
2018-04-24T03:08:36.019Z,9.63
2018-04-24T03:11:03.379Z,9.27
2018-04-24T03:13:30.014Z,9.00
2018-04-24T03:15:56.697Z,7.87
2018-04-24T03:18:23.862Z,6.22
2018-04-24T03:20:50.506Z,7.50
2018-04-24T03:23:17.121Z,5.68
2018-04-24T03:25:43.857Z,6.55
2018-04-24T03:28:10.514Z,6.00
2018-04-24T03:30:37.667Z,6.00
2018-04-24T03:33:04.408Z,5.32
2018-04-24T03:35:31.030Z,5.10
2018-04-24T03:37:57.663Z,7.72
2018-04-24T03:40:24.331Z,4.82
2018-04-24T03:42:51.018Z,5.43
2018-04-24T03:45:17.770Z,4.90
2018-04-24T03:47:44.394Z,5.65
2018-04-24T03:50:14.999Z,4.50
2018-04-24T03:52:44.102Z,4.35
2018-04-24T03:55:12.114Z,4.45
2018-04-24T03:57:39.593Z,4.43
2018-04-24T04:00:06.570Z,4.18
2018-04-24T04:02:33.204Z,3.72
2018-04-24T04:04:59.967Z,4.53
2018-04-24T04:07:26.566Z,3.72
2018-04-24T04:09:53.653Z,4.25
2018-04-24T04:12:20.300Z,4.25
2018-04-24T04:14:46.981Z,3.95
2018-04-24T04:17:21.585Z,4.30
2018-04-24T04:19:54.770Z,4.55
2018-04-24T04:22:27.140Z,4.03
2018-04-24T04:24:53.773Z,3.60
2018-04-24T04:27:20.486Z,4.20
2018-04-24T04:29:47.143Z,4.47
2018-04-24T04:32:14.615Z,4.00
2018-04-24T04:34:41.352Z,4.18
2018-04-24T04:37:08.006Z,4.20
2018-04-24T04:39:34.666Z,4.00
2018-04-24T04:42:02.545Z,3.60
2018-04-24T04:44:29.178Z,3.50
2018-04-24T04:46:56.493Z,3.67
2018-04-24T04:49:23.106Z,3.65
2018-04-24T04:51:49.735Z,3.37
2018-04-24T04:54:16.421Z,3.58
2018-04-24T04:56:43.055Z,3.15
2018-04-24T04:59:10.686Z,3.47
2018-04-24T05:01:37.336Z,3.00
2018-04-24T05:04:03.967Z,3.40
2018-04-24T05:06:30.585Z,3.35
2018-04-24T05:09:01.766Z,3.78
2018-04-24T05:11:28.404Z,3.90
2018-04-24T05:13:55.123Z,3.85
2018-04-24T05:16:21.982Z,3.90
2018-04-24T05:18:48.611Z,3.40
2018-04-24T05:21:15.226Z,3.33
2018-04-24T05:23:41.842Z,3.92
2018-04-24T05:26:08.467Z,3.85
2018-04-24T05:28:35.097Z,3.70
2018-04-24T05:31:01.725Z,3.00
2018-04-24T05:33:28.343Z,3.83
2018-04-24T05:35:54.949Z,4.05
2018-04-24T05:38:21.594Z,3.40
2018-04-24T05:40:48.204Z,3.53
2018-04-24T05:43:14.839Z,3.72
2018-04-24T05:45:42.339Z,3.70
2018-04-24T05:48:08.990Z,3.62
2018-04-24T05:50:35.618Z,3.28
2018-04-24T05:53:02.268Z,3.95
2018-04-24T05:55:28.894Z,3.70
2018-04-24T05:57:55.547Z,3.70
2018-04-24T06:00:22.143Z,3.90
2018-04-24T06:02:48.759Z,4.25
2018-04-24T06:05:15.380Z,3.72
2018-04-24T06:07:42.047Z,3.90
2018-04-24T06:10:08.688Z,3.33
2018-04-24T06:12:35.333Z,4.28
2018-04-24T06:15:01.963Z,4.18
2018-04-24T06:17:28.629Z,4.22
2018-04-24T06:19:55.255Z,3.80
2018-04-24T06:22:21.882Z,4.35
2018-04-24T06:24:48.495Z,4.72
2018-04-24T06:27:15.142Z,4.40
2018-04-24T06:29:41.758Z,4.20
2018-04-24T06:32:08.483Z,4.53
2018-04-24T06:34:35.120Z,3.78
2018-04-24T06:37:01.801Z,3.90
2018-04-24T06:39:28.413Z,4.60
2018-04-24T06:41:55.025Z,4.78
2018-04-24T06:44:21.634Z,5.00
2018-04-24T06:46:48.271Z,4.30
2018-04-24T06:49:14.906Z,4.60
2018-04-24T06:51:41.536Z,5.25
2018-04-24T06:54:08.173Z,4.90
2018-04-24T06:56:34.778Z,4.75
2018-04-24T06:59:01.400Z,4.50
2018-04-24T07:01:28.031Z,4.30
2018-04-24T07:03:54.658Z,4.15
2018-04-24T07:06:21.266Z,5.22
2018-04-24T07:08:47.904Z,5.15
2018-04-24T07:11:14.514Z,4.55
2018-04-24T07:13:41.146Z,4.65
2018-04-24T07:16:07.812Z,4.97
2018-04-24T07:18:34.401Z,4.60
2018-04-24T07:21:01.013Z,5.35
2018-04-24T07:23:27.650Z,4.55
2018-04-24T07:25:54.271Z,4.50
2018-04-24T07:28:20.911Z,4.85
2018-04-24T07:30:47.520Z,5.12
2018-04-24T07:33:14.137Z,4.65
2018-04-24T07:35:40.750Z,4.50
2018-04-24T07:38:07.377Z,4.62
2018-04-24T07:40:34.035Z,3.70
2018-04-24T07:43:00.650Z,4.10
2018-04-24T07:45:27.290Z,4.25
2018-04-24T07:47:53.908Z,5.18
2018-04-24T07:50:20.530Z,4.47
2018-04-24T07:52:47.141Z,4.40
2018-04-24T07:55:13.793Z,4.55
2018-04-24T07:57:40.393Z,4.82
2018-04-24T08:00:07.034Z,4.53
2018-04-24T08:02:33.651Z,4.05
2018-04-24T08:05:00.282Z,3.67
2018-04-24T08:07:26.903Z,4.65
2018-04-24T08:09:53.539Z,3.95
2018-04-24T08:12:20.841Z,4.40
2018-04-24T08:14:47.482Z,5.07
2018-04-24T08:17:14.115Z,5.30
2018-04-24T08:19:40.737Z,4.00
2018-04-24T08:22:07.394Z,4.78
2018-04-24T08:24:34.014Z,3.83
2018-04-24T08:27:00.641Z,4.10
2018-04-24T08:29:27.256Z,4.32
2018-04-24T08:31:53.895Z,4.45
2018-04-24T08:34:20.510Z,4.55
2018-04-24T08:36:47.144Z,4.12
2018-04-24T08:39:13.752Z,4.10
2018-04-24T08:41:40.369Z,4.20
2018-04-24T08:44:06.996Z,4.10
2018-04-24T08:46:33.614Z,4.15
2018-04-24T08:49:00.281Z,3.87
2018-04-24T08:51:26.891Z,4.62
2018-04-24T08:53:53.531Z,4.07
2018-04-24T08:56:20.803Z,4.50
2018-04-24T08:58:47.451Z,4.70
2018-04-24T09:01:14.066Z,4.20
2018-04-24T09:03:40.698Z,4.37
2018-04-24T09:06:08.301Z,5.30
2018-04-24T09:08:36.000Z,5.30
2018-04-24T09:11:02.671Z,5.87
2018-04-24T09:13:29.432Z,5.90
2018-04-24T09:15:56.060Z,5.20
2018-04-24T09:18:22.817Z,5.35
2018-04-24T09:20:49.499Z,5.60
2018-04-24T09:23:16.218Z,4.47
2018-04-24T09:25:43.035Z,5.05
2018-04-24T09:28:09.783Z,4.78
2018-04-24T09:30:36.431Z,5.40
2018-04-24T09:33:03.034Z,4.95
2018-04-24T09:35:29.718Z,5.15
2018-04-24T09:37:56.335Z,5.50
2018-04-24T09:40:22.961Z,5.75
2018-04-24T09:42:49.571Z,6.07
2018-04-24T09:45:16.202Z,5.80
2018-04-24T09:47:42.835Z,5.80
2018-04-24T09:50:09.475Z,7.82
2018-04-24T09:52:36.124Z,6.70
2018-04-24T09:55:02.747Z,8.07
2018-04-24T09:57:29.383Z,8.65
2018-04-24T09:59:56.657Z,8.10
2018-04-24T10:02:23.296Z,9.00
2018-04-24T10:04:49.941Z,9.93
2018-04-24T10:07:16.562Z,7.93
2018-04-24T10:09:43.179Z,8.77
2018-04-24T10:12:09.827Z,7.95
2018-04-24T10:14:36.447Z,8.55
2018-04-24T10:17:03.134Z,7.75
2018-04-24T10:19:29.797Z,8.57
2018-04-24T10:21:56.433Z,8.85
2018-04-24T10:24:23.626Z,8.48
2018-04-24T10:26:50.242Z,8.15
2018-04-24T10:29:17.006Z,8.57
2018-04-24T10:31:43.669Z,8.85
2018-04-24T10:34:10.315Z,8.65
2018-04-24T10:36:37.873Z,7.82
2018-04-24T10:39:05.338Z,9.00
2018-04-24T10:41:31.975Z,8.18
2018-04-24T10:43:59.689Z,8.65
2018-04-24T10:46:26.338Z,8.05
2018-04-24T10:48:57.144Z,8.07
2018-04-24T10:51:23.783Z,8.23
2018-04-24T10:53:50.435Z,8.25
2018-04-24T10:56:18.010Z,8.30
2018-04-24T10:58:45.262Z,7.78
2018-04-24T11:01:11.942Z,8.10
2018-04-24T11:03:38.800Z,8.55
2018-04-24T11:06:13.951Z,7.95
2018-04-24T11:08:40.672Z,8.57
2018-04-24T11:11:07.557Z,8.32
2018-04-24T11:13:34.644Z,7.80
2018-04-24T11:16:01.507Z,8.20
2018-04-24T11:18:29.090Z,9.57
2018-04-24T11:20:56.381Z,8.82
2018-04-24T11:23:23.046Z,9.27
2018-04-24T11:25:51.132Z,8.93
2018-04-24T11:28:18.681Z,9.80
2018-04-24T11:30:45.381Z,9.80
2018-04-24T11:33:12.820Z,9.60
2018-04-24T11:35:39.539Z,10.52
2018-04-24T11:38:06.963Z,11.23
2018-04-24T11:40:33.612Z,10.88
2018-04-24T11:43:00.294Z,11.93
2018-04-24T11:45:27.614Z,11.48
2018-04-24T11:47:54.328Z,11.70
2018-04-24T11:50:21.005Z,11.60
2018-04-24T11:52:47.637Z,10.90
2018-04-24T11:55:14.363Z,11.02
2018-04-24T11:57:41.662Z,10.23
2018-04-24T12:00:08.328Z,11.63
2018-04-24T12:02:35.029Z,11.68
2018-04-24T12:05:01.637Z,11.45
2018-04-24T12:07:32.244Z,11.27
2018-04-24T12:09:59.678Z,12.05
2018-04-24T12:12:26.944Z,13.65
2018-04-24T12:14:53.583Z,11.90
2018-04-24T12:17:28.613Z,11.60
2018-04-24T12:19:55.287Z,12.15
2018-04-24T12:22:21.964Z,13.25
2018-04-24T12:24:48.612Z,12.85
2018-04-24T12:27:15.313Z,12.48
2018-04-24T12:29:42.291Z,13.75
2018-04-24T12:32:08.954Z,13.77
2018-04-24T12:34:35.602Z,14.57
2018-04-24T12:37:03.406Z,14.87
2018-04-24T12:39:30.366Z,14.15
2018-04-24T12:41:57.034Z,13.73
2018-04-24T12:44:23.690Z,14.30
2018-04-24T12:46:51.552Z,14.48
2018-04-24T12:49:20.654Z,14.70
2018-04-24T12:51:47.462Z,14.82
2018-04-24T12:54:14.116Z,17.00
2018-04-24T12:56:41.562Z,16.92
2018-04-24T12:59:09.860Z,18.50
2018-04-24T13:01:36.475Z,18.90
2018-04-24T13:04:03.799Z,17.42
2018-04-24T13:06:33.847Z,21.27
2018-04-24T13:09:05.573Z,20.50
2018-04-24T13:11:32.839Z,18.42
2018-04-24T13:14:03.651Z,23.20
2018-04-24T13:16:31.203Z,22.75
2018-04-24T13:18:57.885Z,20.73
2018-04-24T13:21:24.542Z,21.48
2018-04-24T13:23:51.182Z,20.58
2018-04-24T13:26:22.251Z,21.48
2018-04-24T13:28:48.960Z,22.27
2018-04-24T13:31:15.675Z,22.92
2018-04-24T13:33:48.211Z,21.95
2018-04-24T13:36:14.854Z,24.73
2018-04-24T13:38:41.489Z,23.15
2018-04-24T13:41:08.204Z,24.17
2018-04-24T13:43:34.774Z,27.65
2018-04-24T13:46:01.419Z,25.73
2018-04-24T13:48:28.041Z,24.90
2018-04-24T13:50:54.705Z,24.87
2018-04-24T13:53:21.343Z,24.77
2018-04-24T13:55:47.997Z,26.40
2018-04-24T13:58:14.646Z,24.42
2018-04-24T14:00:41.317Z,25.37
2018-04-24T14:03:07.983Z,24.70
2018-04-24T14:05:34.611Z,25.50
2018-04-24T14:08:01.285Z,26.67
2018-04-24T14:10:27.946Z,25.30
2018-04-24T14:12:54.591Z,24.35
2018-04-24T14:15:21.227Z,24.75
2018-04-24T14:17:47.872Z,24.92
2018-04-24T14:20:14.618Z,22.92
2018-04-24T14:22:41.258Z,24.48
2018-04-24T14:25:07.887Z,23.40
2018-04-24T14:27:34.529Z,23.30
2018-04-24T14:30:01.150Z,24.20
2018-04-24T14:32:27.782Z,23.75
2018-04-24T14:34:54.423Z,26.05
2018-04-24T14:37:21.062Z,20.80
2018-04-24T14:39:47.704Z,20.30
2018-04-24T14:42:14.362Z,21.85
2018-04-24T14:44:40.999Z,22.40
2018-04-24T14:47:07.641Z,21.70
2018-04-24T14:49:34.276Z,22.95
2018-04-24T14:52:00.916Z,23.45
2018-04-24T14:54:27.550Z,22.23
2018-04-24T14:56:54.174Z,23.12
2018-04-24T14:59:20.819Z,21.23
2018-04-24T15:01:47.439Z,21.02
2018-04-24T15:04:14.079Z,23.00
2018-04-24T15:06:42.707Z,21.10
2018-04-24T15:09:10.073Z,22.37
2018-04-24T15:11:36.707Z,21.52
2018-04-24T15:14:03.360Z,22.42
2018-04-24T15:16:29.976Z,22.40
2018-04-24T15:18:56.622Z,22.40
2018-04-24T15:21:23.254Z,22.30
2018-04-24T15:23:49.926Z,22.33
2018-04-24T15:26:16.558Z,24.40
2018-04-24T15:28:43.238Z,22.30
2018-04-24T15:31:09.862Z,22.37
2018-04-24T15:33:36.502Z,22.87
2018-04-24T15:36:03.127Z,22.13
2018-04-24T15:38:30.532Z,21.02
2018-04-24T15:40:57.164Z,21.65
2018-04-24T15:43:23.808Z,23.85
2018-04-24T15:45:50.455Z,23.90
2018-04-24T15:48:17.090Z,23.98
2018-04-24T15:50:43.726Z,25.12
2018-04-24T15:53:10.426Z,25.65
2018-04-24T15:55:37.477Z,25.67
2018-04-24T15:58:04.115Z,26.23
2018-04-24T16:00:30.791Z,22.55
2018-04-24T16:02:57.487Z,25.33
2018-04-24T16:05:24.092Z,23.00
2018-04-24T16:07:50.708Z,23.90
2018-04-24T16:10:17.372Z,25.10
2018-04-24T16:12:44.004Z,24.83
2018-04-24T16:15:10.642Z,23.62
2018-04-24T16:17:37.298Z,26.40
2018-04-24T16:20:03.963Z,23.62
2018-04-24T16:22:30.608Z,24.58
2018-04-24T16:24:57.281Z,23.02
2018-04-24T16:27:24.603Z,24.40
2018-04-24T16:29:51.292Z,23.67
2018-04-24T16:32:18.679Z,21.90
2018-04-24T16:34:45.353Z,23.40
2018-04-24T16:37:11.993Z,22.33
2018-04-24T16:39:38.614Z,20.40
2018-04-24T16:42:05.365Z,23.55
2018-04-24T16:44:32.052Z,23.58
2018-04-24T16:46:58.734Z,22.67
2018-04-24T16:49:25.446Z,24.48
2018-04-24T16:51:52.631Z,26.50
2018-04-24T16:54:19.555Z,24.70
2018-04-24T16:56:46.119Z,25.48
2018-04-24T16:59:13.554Z,25.10
2018-04-24T17:01:40.268Z,25.65
2018-04-24T17:04:06.925Z,22.15
2018-04-24T17:06:37.529Z,22.95
2018-04-24T17:09:07.978Z,24.12
2018-04-24T17:11:38.712Z,25.65
2018-04-24T17:14:06.158Z,22.62
2018-04-24T17:16:33.461Z,24.27
2018-04-24T17:19:00.178Z,23.42
2018-04-24T17:21:26.871Z,24.40
2018-04-24T17:23:53.579Z,22.10
2018-04-24T17:26:20.999Z,22.00
2018-04-24T17:28:47.698Z,23.50
2018-04-24T17:31:14.371Z,23.50
2018-04-24T17:33:41.810Z,26.10
2018-04-24T17:36:12.152Z,24.45
2018-04-24T17:38:38.871Z,24.35
2018-04-24T17:41:05.557Z,24.20
2018-04-24T17:43:32.275Z,24.02
2018-04-24T17:45:59.813Z,23.70
2018-04-24T17:48:26.467Z,26.73
2018-04-24T17:50:53.840Z,25.40
2018-04-24T17:53:20.491Z,26.15
2018-04-24T17:55:47.280Z,25.25
2018-04-24T17:58:13.988Z,24.12
2018-04-24T18:00:40.967Z,24.73
2018-04-24T18:03:08.363Z,25.95
2018-04-24T18:05:35.079Z,23.10
2018-04-24T18:08:02.145Z,23.87
2018-04-24T18:10:29.214Z,24.73
2018-04-24T18:13:02.676Z,24.87
2018-04-24T18:15:31.799Z,25.65
2018-04-24T18:27:47.726Z,23.23
2018-04-24T18:30:14.301Z,25.42
2018-04-24T18:32:44.808Z,25.35
2018-04-24T18:35:12.406Z,25.35
2018-04-24T18:37:40.515Z,27.40
2018-04-24T18:40:08.429Z,25.88
2018-04-24T18:42:38.940Z,26.42
2018-04-24T18:45:05.685Z,23.55
2018-04-24T18:47:32.450Z,25.30
2018-04-24T18:49:59.225Z,26.45
2018-04-24T18:52:25.986Z,26.85
2018-04-24T18:54:52.726Z,25.90
2018-04-24T18:57:19.406Z,24.65
2018-04-24T18:59:46.091Z,25.62
2018-04-24T19:02:12.770Z,26.60
2018-04-24T19:14:24.577Z,24.75
2018-04-24T19:16:51.368Z,25.65
2018-04-24T19:19:25.320Z,25.98
2018-04-24T19:21:51.998Z,25.33
2018-04-24T19:24:24.366Z,24.27
2018-04-24T19:26:51.186Z,26.90
2018-04-24T19:29:17.977Z,27.13
2018-04-24T19:31:51.641Z,27.00
2018-04-24T19:34:18.548Z,28.73
2018-04-24T19:36:45.222Z,27.52
2018-04-24T19:39:21.621Z,28.60
2018-04-24T19:41:48.674Z,27.55
2018-04-24T19:44:15.375Z,26.62
2018-04-24T19:46:43.461Z,26.20
2018-04-24T19:49:16.019Z,26.85
2018-04-24T19:51:43.212Z,28.50
2018-04-24T19:54:09.851Z,27.27
2018-04-24T19:56:36.572Z,24.83
2018-04-24T19:59:03.230Z,25.37
2018-04-24T20:01:29.884Z,25.12
2018-04-24T20:03:56.516Z,26.25
2018-04-24T20:06:23.200Z,26.60
2018-04-24T20:08:49.831Z,26.10
2018-04-24T20:11:20.707Z,26.27
2018-04-24T20:13:47.453Z,26.48
2018-04-24T20:16:14.279Z,26.02
2018-04-24T20:18:40.940Z,23.80
2018-04-24T20:21:07.576Z,25.62
2018-04-24T20:23:34.233Z,23.98
2018-04-24T20:26:00.891Z,21.40
2018-04-24T20:28:27.598Z,24.67
2018-04-24T20:30:54.243Z,21.37
2018-04-24T20:33:21.150Z,22.45
2018-04-24T20:35:51.691Z,22.95
2018-04-24T20:38:18.386Z,21.20
2018-04-24T20:40:45.035Z,21.80
2018-04-24T20:43:12.398Z,22.27
2018-04-24T20:45:43.165Z,22.10
2018-04-24T20:48:09.837Z,20.58
2018-04-24T20:50:36.604Z,21.25
2018-04-24T20:53:12.392Z,25.08
2018-04-24T20:55:38.927Z,21.33
2018-04-24T20:58:06.398Z,21.35
2018-04-24T21:00:33.142Z,20.95
2018-04-24T21:02:59.816Z,21.42
2018-04-24T21:05:28.170Z,20.73
2018-04-24T21:07:55.677Z,22.30
2018-04-24T21:10:22.373Z,21.70
2018-04-24T21:12:49.058Z,20.37
2018-04-24T21:15:15.765Z,21.73
2018-04-24T21:17:44.939Z,22.35
2018-04-24T21:20:11.589Z,20.88
2018-04-24T21:22:39.006Z,21.12
2018-04-24T21:25:05.707Z,22.10
2018-04-24T21:27:32.482Z,20.42
2018-04-24T21:29:59.106Z,21.48
2018-04-24T21:32:25.815Z,21.10
2018-04-24T21:34:52.438Z,21.85
2018-04-24T21:37:19.328Z,20.83
2018-04-24T21:39:46.491Z,22.95
2018-04-24T21:42:14.010Z,20.00
2018-04-24T21:44:40.746Z,20.85
2018-04-24T21:47:07.477Z,22.10
2018-04-24T21:49:34.688Z,20.15
2018-04-24T21:52:01.326Z,21.35
2018-04-24T21:54:27.986Z,20.70
2018-04-24T21:56:54.642Z,20.20
2018-04-24T21:59:21.935Z,22.67
2018-04-24T22:01:48.658Z,21.15
2018-04-24T22:04:15.322Z,20.75
2018-04-24T22:06:41.993Z,20.52
2018-04-24T22:09:08.662Z,18.33
2018-04-24T22:11:35.334Z,23.25
2018-04-24T22:14:02.033Z,18.90
2018-04-24T22:16:28.737Z,19.48
2018-04-24T22:18:55.423Z,19.80
2018-04-24T22:21:26.486Z,19.73
2018-04-24T22:23:53.162Z,20.75
2018-04-24T22:26:19.799Z,18.98
2018-04-24T22:28:46.451Z,20.17
2018-04-24T22:31:13.082Z,20.25
2018-04-24T22:33:39.883Z,19.85
2018-04-24T22:36:07.407Z,19.20
2018-04-24T22:38:34.047Z,19.87
2018-04-24T22:41:07.178Z,17.33
2018-04-24T22:43:34.682Z,20.17
2018-04-24T22:46:01.343Z,19.05
2018-04-24T22:48:36.531Z,20.05
2018-04-24T22:51:03.205Z,19.80
2018-04-24T22:53:33.897Z,19.02
2018-04-24T22:56:01.411Z,19.33
2018-04-24T22:58:29.060Z,20.02
2018-04-24T23:00:55.729Z,18.75
2018-04-24T23:03:22.734Z,19.37
2018-04-24T23:05:49.474Z,19.27
2018-04-24T23:08:17.012Z,17.80
2018-04-24T23:10:49.585Z,19.52
2018-04-24T23:13:22.177Z,18.10
2018-04-24T23:15:57.313Z,17.52
2018-04-24T23:18:29.808Z,20.23
2018-04-24T23:20:56.373Z,19.42
2018-04-24T23:23:27.223Z,17.00
2018-04-24T23:25:53.890Z,19.42
2018-04-24T23:28:20.623Z,18.20
2018-04-24T23:30:51.722Z,17.17
2018-04-24T23:33:18.399Z,18.15
2018-04-24T23:35:45.026Z,18.90
2018-04-24T23:38:11.727Z,17.85
2018-04-24T23:40:38.430Z,18.10
2018-04-24T23:43:05.685Z,18.10
2018-04-24T23:45:32.825Z,18.08
2018-04-24T23:47:59.555Z,19.77
2018-04-24T23:50:26.192Z,18.67
2018-04-24T23:52:52.826Z,19.35
2018-04-24T23:55:19.490Z,19.10
2018-04-24T23:57:46.310Z,19.27
